sensor_id;sensor_type;location;lat;lon;timestamp;pressure;altitude;pressure_sealevel;temperature;humidity
62420;BME280;48460;51.616;5.426;2022-09-09T00:00:23;100737.94;;;13.25;100.00
62420;BME280;48460;51.616;5.426;2022-09-09T00:07:53;100731.13;;;13.20;100.00
62420;BME280;48460;51.616;5.426;2022-09-09T00:10:29;100729.38;;;13.21;100.00
62420;BME280;48460;51.616;5.426;2022-09-09T00:16:04;100717.47;;;13.14;100.00
62420;BME280;48460;51.616;5.426;2022-09-09T00:21:26;100713.53;;;13.21;100.00
62420;BME280;48460;51.616;5.426;2022-09-09T00:23:57;100708.63;;;13.15;100.00
62420;BME280;48460;51.616;5.426;2022-09-09T00:31:39;100712.84;;;13.17;100.00
62420;BME280;48460;51.616;5.426;2022-09-09T00:36:36;100712.56;;;13.22;100.00
62420;BME280;48460;51.616;5.426;2022-09-09T00:39:03;100704.19;;;13.15;100.00
62420;BME280;48460;51.616;5.426;2022-09-09T00:41:39;100699.00;;;13.14;100.00
62420;BME280;48460;51.616;5.426;2022-09-09T00:44:33;100699.84;;;13.14;100.00
62420;BME280;48460;51.616;5.426;2022-09-09T00:52:23;100691.47;;;13.08;100.00
62420;BME280;48460;51.616;5.426;2022-09-09T00:57:26;100688.75;;;13.09;100.00
62420;BME280;48460;51.616;5.426;2022-09-09T01:05:15;100684.16;;;12.98;100.00
62420;BME280;48460;51.616;5.426;2022-09-09T01:07:47;100687.75;;;12.97;100.00
62420;BME280;48460;51.616;5.426;2022-09-09T01:10:26;100685.00;;;12.99;100.00
62420;BME280;48460;51.616;5.426;2022-09-09T01:12:58;100685.56;;;13.04;100.00
62420;BME280;48460;51.616;5.426;2022-09-09T01:15:29;100692.91;;;12.99;100.00
62420;BME280;48460;51.616;5.426;2022-09-09T01:18:11;100692.06;;;12.98;100.00
62420;BME280;48460;51.616;5.426;2022-09-09T01:23:34;100686.34;;;12.92;100.00
62420;BME280;48460;51.616;5.426;2022-09-09T01:28:36;100686.19;;;12.81;100.00
62420;BME280;48460;51.616;5.426;2022-09-09T01:31:04;100692.31;;;12.81;100.00
62420;BME280;48460;51.616;5.426;2022-09-09T01:33:31;100681.94;;;12.78;100.00
62420;BME280;48460;51.616;5.426;2022-09-09T01:36:21;100684.38;;;12.81;100.00
62420;BME280;48460;51.616;5.426;2022-09-09T01:38:49;100681.31;;;12.74;100.00
62420;BME280;48460;51.616;5.426;2022-09-09T01:41:15;100683.94;;;12.74;100.00
62420;BME280;48460;51.616;5.426;2022-09-09T01:43:40;100676.88;;;12.75;100.00
62420;BME280;48460;51.616;5.426;2022-09-09T01:46:06;100669.78;;;12.75;100.00
62420;BME280;48460;51.616;5.426;2022-09-09T01:48:32;100672.22;;;12.78;100.00
62420;BME280;48460;51.616;5.426;2022-09-09T01:50:58;100671.09;;;12.83;100.00
62420;BME280;48460;51.616;5.426;2022-09-09T01:53:24;100671.50;;;12.76;100.00
62420;BME280;48460;51.616;5.426;2022-09-09T01:58:31;100678.47;;;12.77;100.00
62420;BME280;48460;51.616;5.426;2022-09-09T02:02:03;100674.13;;;12.76;100.00
62420;BME280;48460;51.616;5.426;2022-09-09T02:05:01;100674.03;;;12.78;100.00
62420;BME280;48460;51.616;5.426;2022-09-09T02:07:01;100666.22;;;12.76;100.00
62420;BME280;48460;51.616;5.426;2022-09-09T02:09:29;100659.16;;;12.77;100.00
62420;BME280;48460;51.616;5.426;2022-09-09T02:12:04;100658.50;;;12.73;100.00
62420;BME280;48460;51.616;5.426;2022-09-09T02:14:37;100654.34;;;12.69;100.00
62420;BME280;48460;51.616;5.426;2022-09-09T02:17:09;100658.13;;;12.65;100.00
62420;BME280;48460;51.616;5.426;2022-09-09T02:19:41;100654.53;;;12.66;100.00
62420;BME280;48460;51.616;5.426;2022-09-09T02:22:11;100654.34;;;12.69;100.00
62420;BME280;48460;51.616;5.426;2022-09-09T02:24:38;100649.84;;;12.71;100.00
62420;BME280;48460;51.616;5.426;2022-09-09T02:27:06;100647.19;;;12.71;100.00
62420;BME280;48460;51.616;5.426;2022-09-09T02:29:36;100644.34;;;12.74;100.00
62420;BME280;48460;51.616;5.426;2022-09-09T02:32:06;100646.25;;;12.72;100.00
62420;BME280;48460;51.616;5.426;2022-09-09T02:34:39;100655.88;;;12.73;100.00
62420;BME280;48460;51.616;5.426;2022-09-09T02:37:08;100647.06;;;12.73;100.00
62420;BME280;48460;51.616;5.426;2022-09-09T02:39:34;100653.97;;;12.75;100.00
62420;BME280;48460;51.616;5.426;2022-09-09T02:42:00;100653.97;;;12.75;100.00
62420;BME280;48460;51.616;5.426;2022-09-09T02:44:25;100649.63;;;12.74;100.00
62420;BME280;48460;51.616;5.426;2022-09-09T02:52:08;100654.34;;;12.69;100.00
62420;BME280;48460;51.616;5.426;2022-09-09T02:54:40;100654.28;;;12.71;100.00
62420;BME280;48460;51.616;5.426;2022-09-09T02:57:19;100650.47;;;12.75;100.00
62420;BME280;48460;51.616;5.426;2022-09-09T02:59:46;100650.59;;;12.73;100.00
62420;BME280;48460;51.616;5.426;2022-09-09T03:02:11;100659.44;;;12.72;100.00
62420;BME280;48460;51.616;5.426;2022-09-09T03:04:38;100660.38;;;12.71;100.00
62420;BME280;48460;51.616;5.426;2022-09-09T03:07:04;100656.72;;;12.74;100.00
62420;BME280;48460;51.616;5.426;2022-09-09T03:09:30;100656.59;;;12.75;100.00
62420;BME280;48460;51.616;5.426;2022-09-09T03:11:57;100659.34;;;12.74;100.00
62420;BME280;48460;51.616;5.426;2022-09-09T03:14:23;100652.56;;;12.70;100.00
62420;BME280;48460;51.616;5.426;2022-09-09T03:16:52;100661.44;;;12.69;100.00
62420;BME280;48460;51.616;5.426;2022-09-09T03:19:18;100655.38;;;12.67;100.00
62420;BME280;48460;51.616;5.426;2022-09-09T03:21:46;100664.91;;;12.69;100.00
62420;BME280;48460;51.616;5.426;2022-09-09T03:24:13;100652.03;;;12.65;100.00
62420;BME280;48460;51.616;5.426;2022-09-09T03:26:40;100667.34;;;12.72;100.00
62420;BME280;48460;51.616;5.426;2022-09-09T03:29:06;100665.03;;;12.68;100.00
62420;BME280;48460;51.616;5.426;2022-09-09T03:31:35;100663.03;;;12.71;100.00
62420;BME280;48460;51.616;5.426;2022-09-09T03:34:01;100659.94;;;12.65;100.00
62420;BME280;48460;51.616;5.426;2022-09-09T03:36:28;100660.66;;;12.67;100.00
62420;BME280;48460;51.616;5.426;2022-09-09T03:38:55;100661.34;;;12.70;100.00
62420;BME280;48460;51.616;5.426;2022-09-09T03:41:22;100667.53;;;12.69;100.00
62420;BME280;48460;51.616;5.426;2022-09-09T03:43:50;100665.09;;;12.66;100.00
62420;BME280;48460;51.616;5.426;2022-09-09T03:46:15;100660.66;;;12.67;100.00
62420;BME280;48460;51.616;5.426;2022-09-09T03:48:41;100655.38;;;12.67;100.00
62420;BME280;48460;51.616;5.426;2022-09-09T03:51:06;100670.28;;;12.68;100.00
62420;BME280;48460;51.616;5.426;2022-09-09T03:53:32;100652.94;;;12.64;100.00
62420;BME280;48460;51.616;5.426;2022-09-09T03:55:58;100658.91;;;12.67;100.00
62420;BME280;48460;51.616;5.426;2022-09-09T03:58:26;100649.28;;;12.66;100.00
62420;BME280;48460;51.616;5.426;2022-09-09T04:00:55;100658.78;;;12.69;100.00
62420;BME280;48460;51.616;5.426;2022-09-09T04:03:24;100652.75;;;12.67;100.00
62420;BME280;48460;51.616;5.426;2022-09-09T04:05:54;100651.72;;;12.69;100.00
62420;BME280;48460;51.616;5.426;2022-09-09T04:08:20;100649.91;;;12.70;100.00
62420;BME280;48460;51.616;5.426;2022-09-09T04:10:49;100651.50;;;12.72;100.00
62420;BME280;48460;51.616;5.426;2022-09-09T04:13:15;100651.63;;;12.71;100.00
62420;BME280;48460;51.616;5.426;2022-09-09T04:15:41;100638.53;;;12.69;100.00
62420;BME280;48460;51.616;5.426;2022-09-09T04:18:07;100642.88;;;12.70;100.00
62420;BME280;48460;51.616;5.426;2022-09-09T04:20:33;100644.56;;;12.71;100.00
62420;BME280;48460;51.616;5.426;2022-09-09T04:22:59;100645.72;;;12.67;100.00
62420;BME280;48460;51.616;5.426;2022-09-09T04:25:24;100637.78;;;12.67;100.00
62420;BME280;48460;51.616;5.426;2022-09-09T04:27:57;100640.63;;;12.64;100.00
62420;BME280;48460;51.616;5.426;2022-09-09T04:30:30;100639.66;;;12.65;100.00
62420;BME280;48460;51.616;5.426;2022-09-09T04:35:38;100649.63;;;12.74;100.00
62420;BME280;48460;51.616;5.426;2022-09-09T04:38:04;100636.91;;;12.67;100.00
62420;BME280;48460;51.616;5.426;2022-09-09T04:40:32;100636.91;;;12.67;100.00
62420;BME280;48460;51.616;5.426;2022-09-09T04:43:01;100629.75;;;12.69;100.00
62420;BME280;48460;51.616;5.426;2022-09-09T04:45:30;100633.03;;;12.72;100.00
62420;BME280;48460;51.616;5.426;2022-09-09T04:48:05;100634.75;;;12.73;100.00
62420;BME280;48460;51.616;5.426;2022-09-09T04:50:30;100637.41;;;12.73;100.00
62420;BME280;48460;51.616;5.426;2022-09-09T04:53:00;100633.72;;;12.76;100.00
62420;BME280;48460;51.616;5.426;2022-09-09T04:55:26;100632.75;;;12.77;100.00
62420;BME280;48460;51.616;5.426;2022-09-09T04:57:51;100634.38;;;12.80;100.00
62420;BME280;48460;51.616;5.426;2022-09-09T05:00:16;100630.00;;;12.78;100.00
62420;BME280;48460;51.616;5.426;2022-09-09T05:02:42;100622.09;;;12.78;100.00
62420;BME280;48460;51.616;5.426;2022-09-09T05:05:08;100625.81;;;12.76;100.00
62420;BME280;48460;51.616;5.426;2022-09-09T05:07:33;100627.28;;;12.80;100.00
62420;BME280;48460;51.616;5.426;2022-09-09T05:09:59;100623.81;;;12.80;100.00
62420;BME280;48460;51.616;5.426;2022-09-09T05:12:24;100630.88;;;12.79;100.00
62420;BME280;48460;51.616;5.426;2022-09-09T05:14:54;100637.84;;;12.80;100.00
62420;BME280;48460;51.616;5.426;2022-09-09T05:17:19;100626.44;;;12.80;100.00
62420;BME280;48460;51.616;5.426;2022-09-09T05:19:45;100620.97;;;12.83;100.00
62420;BME280;48460;51.616;5.426;2022-09-09T05:22:10;100619.06;;;12.85;100.00
62420;BME280;48460;51.616;5.426;2022-09-09T05:24:38;100631.97;;;12.89;100.00
62420;BME280;48460;51.616;5.426;2022-09-09T05:27:05;100611.91;;;12.87;100.00
62420;BME280;48460;51.616;5.426;2022-09-09T05:29:31;100623.84;;;12.92;100.00
62420;BME280;48460;51.616;5.426;2022-09-09T05:31:59;100603.78;;;12.90;100.00
62420;BME280;48460;51.616;5.426;2022-09-09T05:34:36;100608.09;;;12.91;100.00
62420;BME280;48460;51.616;5.426;2022-09-09T05:37:04;100608.84;;;12.93;100.00
62420;BME280;48460;51.616;5.426;2022-09-09T05:39:29;100606.97;;;12.95;100.00
62420;BME280;48460;51.616;5.426;2022-09-09T05:41:55;100610.16;;;13.00;100.00
62420;BME280;48460;51.616;5.426;2022-09-09T05:44:20;100607.41;;;13.02;100.00
62420;BME280;48460;51.616;5.426;2022-09-09T05:46:48;100621.91;;;13.09;100.00
62420;BME280;48460;51.616;5.426;2022-09-09T05:49:14;100622.44;;;13.14;100.00
62420;BME280;48460;51.616;5.426;2022-09-09T05:51:40;100627.63;;;13.15;100.00
62420;BME280;48460;51.616;5.426;2022-09-09T05:54:08;100633.75;;;13.16;100.00
62420;BME280;48460;51.616;5.426;2022-09-09T05:56:33;100637.50;;;13.26;100.00
62420;BME280;48460;51.616;5.426;2022-09-09T05:58:59;100639.72;;;13.32;100.00
62420;BME280;48460;51.616;5.426;2022-09-09T06:01:31;100634.22;;;13.35;100.00
62420;BME280;48460;51.616;5.426;2022-09-09T06:04:00;100638.59;;;13.36;100.00
62420;BME280;48460;51.616;5.426;2022-09-09T06:06:27;100630.34;;;13.41;100.00
62420;BME280;48460;51.616;5.426;2022-09-09T06:08:56;100635.31;;;13.45;100.00
62420;BME280;48460;51.616;5.426;2022-09-09T06:11:25;100637.44;;;13.53;100.00
62420;BME280;48460;51.616;5.426;2022-09-09T06:13:53;100645.69;;;13.61;100.00
62420;BME280;48460;51.616;5.426;2022-09-09T06:16:21;100640.63;;;13.71;100.00
62420;BME280;48460;51.616;5.426;2022-09-09T06:18:50;100636.84;;;13.75;100.00
62420;BME280;48460;51.616;5.426;2022-09-09T06:21:21;100642.03;;;13.89;100.00
62420;BME280;48460;51.616;5.426;2022-09-09T06:23:47;100641.78;;;14.05;100.00
62420;BME280;48460;51.616;5.426;2022-09-09T06:26:18;100639.56;;;14.12;100.00
62420;BME280;48460;51.616;5.426;2022-09-09T06:28:48;100646.53;;;14.26;100.00
62420;BME280;48460;51.616;5.426;2022-09-09T06:31:16;100644.41;;;14.31;100.00
62420;BME280;48460;51.616;5.426;2022-09-09T06:33:50;100653.06;;;14.33;100.00
62420;BME280;48460;51.616;5.426;2022-09-09T06:36:26;100646.84;;;14.34;100.00
62420;BME280;48460;51.616;5.426;2022-09-09T06:38:52;100643.03;;;14.38;100.00
62420;BME280;48460;51.616;5.426;2022-09-09T06:41:18;100653.81;;;14.35;100.00
62420;BME280;48460;51.616;5.426;2022-09-09T06:43:47;100646.63;;;14.37;100.00
62420;BME280;48460;51.616;5.426;2022-09-09T06:46:22;100641.13;;;14.53;100.00
62420;BME280;48460;51.616;5.426;2022-09-09T06:48:47;100635.91;;;14.64;100.00
62420;BME280;48460;51.616;5.426;2022-09-09T06:51:19;100639.56;;;14.74;100.00
62420;BME280;48460;51.616;5.426;2022-09-09T06:53:47;100633.41;;;14.74;100.00
62420;BME280;48460;51.616;5.426;2022-09-09T06:58:49;100637.38;;;14.92;100.00
62420;BME280;48460;51.616;5.426;2022-09-09T07:01:23;100647.69;;;15.08;100.00
62420;BME280;48460;51.616;5.426;2022-09-09T07:03:50;100641.59;;;15.19;100.00
62420;BME280;48460;51.616;5.426;2022-09-09T07:06:18;100642.00;;;15.37;100.00
62420;BME280;48460;51.616;5.426;2022-09-09T07:08:48;100640.88;;;15.63;100.00
62420;BME280;48460;51.616;5.426;2022-09-09T07:11:14;100653.25;;;15.87;100.00
62420;BME280;48460;51.616;5.426;2022-09-09T07:13:39;100649.38;;;15.91;100.00
62420;BME280;48460;51.616;5.426;2022-09-09T07:16:06;100648.06;;;15.85;100.00
62420;BME280;48460;51.616;5.426;2022-09-09T07:18:32;100642.28;;;15.80;100.00
62420;BME280;48460;51.616;5.426;2022-09-09T07:20:58;100636.50;;;15.86;100.00
62420;BME280;48460;51.616;5.426;2022-09-09T07:23:26;100633.13;;;15.84;100.00
62420;BME280;48460;51.616;5.426;2022-09-09T07:25:52;100630.97;;;15.89;100.00
62420;BME280;48460;51.616;5.426;2022-09-09T07:28:25;100618.19;;;15.94;100.00
62420;BME280;48460;51.616;5.426;2022-09-09T07:31:00;100615.28;;;16.09;100.00
62420;BME280;48460;51.616;5.426;2022-09-09T07:33:33;100622.28;;;16.21;100.00
62420;BME280;48460;51.616;5.426;2022-09-09T07:36:16;100619.63;;;16.21;100.00
62420;BME280;48460;51.616;5.426;2022-09-09T07:38:55;100621.31;;;16.11;100.00
62420;BME280;48460;51.616;5.426;2022-09-09T07:41:28;100636.84;;;15.93;100.00
62420;BME280;48460;51.616;5.426;2022-09-09T07:43:58;100641.47;;;15.67;100.00
62420;BME280;48460;51.616;5.426;2022-09-09T07:49:43;100639.25;;;15.49;100.00
62420;BME280;48460;51.616;5.426;2022-09-09T07:57:19;100636.31;;;15.65;100.00
62420;BME280;48460;51.616;5.426;2022-09-09T07:59:58;100629.19;;;15.66;100.00
62420;BME280;48460;51.616;5.426;2022-09-09T08:02:26;100629.09;;;15.67;100.00
62420;BME280;48460;51.616;5.426;2022-09-09T08:12:40;100628.19;;;16.02;100.00
62420;BME280;48460;51.616;5.426;2022-09-09T08:17:45;100635.78;;;16.07;100.00
62420;BME280;48460;51.616;5.426;2022-09-09T08:20:13;100634.31;;;16.03;100.00
62420;BME280;48460;51.616;5.426;2022-09-09T08:22:41;100647.13;;;15.98;100.00
62420;BME280;48460;51.616;5.426;2022-09-09T08:25:09;100639.16;;;15.98;100.00
62420;BME280;48460;51.616;5.426;2022-09-09T08:27:40;100649.66;;;16.10;100.00
62420;BME280;48460;51.616;5.426;2022-09-09T08:30:09;100640.88;;;16.21;100.00
62420;BME280;48460;51.616;5.426;2022-09-09T08:32:39;100648.56;;;16.35;100.00
62420;BME280;48460;51.616;5.426;2022-09-09T08:41:24;100643.47;;;16.55;98.13
62420;BME280;48460;51.616;5.426;2022-09-09T08:51:54;100651.94;;;16.37;99.19
62420;BME280;48460;51.616;5.426;2022-09-09T08:54:30;100654.00;;;16.34;99.35
62420;BME280;48460;51.616;5.426;2022-09-09T08:57:11;100658.31;;;16.24;97.89
62420;BME280;48460;51.616;5.426;2022-09-09T08:59:51;100658.56;;;16.21;100.00
62420;BME280;48460;51.616;5.426;2022-09-09T09:08:59;100677.88;;;16.11;98.77
62420;BME280;48460;51.616;5.426;2022-09-09T09:11:26;100664.75;;;16.21;99.42
62420;BME280;48460;51.616;5.426;2022-09-09T09:14:09;100674.25;;;16.35;97.18
62420;BME280;48460;51.616;5.426;2022-09-09T09:17:02;100663.88;;;16.43;97.84
62420;BME280;48460;51.616;5.426;2022-09-09T09:19:48;100664.97;;;16.40;96.78
62420;BME280;48460;51.616;5.426;2022-09-09T09:27:40;100679.81;;;16.43;97.03
62420;BME280;48460;51.616;5.426;2022-09-09T09:30:21;100671.50;;;16.36;95.78
62420;BME280;48460;51.616;5.426;2022-09-09T09:38:28;100675.47;;;16.42;96.08
62420;BME280;48460;51.616;5.426;2022-09-09T09:41:01;100676.06;;;16.34;95.37
62420;BME280;48460;51.616;5.426;2022-09-09T09:43:40;100673.66;;;16.31;95.28
62420;BME280;48460;51.616;5.426;2022-09-09T09:46:24;100672.69;;;16.32;97.23
62420;BME280;48460;51.616;5.426;2022-09-09T09:49:02;100678.00;;;16.32;96.90
62420;BME280;48460;51.616;5.426;2022-09-09T09:51:30;100679.69;;;16.33;95.63
62420;BME280;48460;51.616;5.426;2022-09-09T09:56:46;100676.81;;;16.36;99.67
62420;BME280;48460;51.616;5.426;2022-09-09T09:59:31;100680.88;;;16.29;98.70
62420;BME280;48460;51.616;5.426;2022-09-09T10:02:13;100666.53;;;16.32;99.90
62420;BME280;48460;51.616;5.426;2022-09-09T10:04:40;100662.91;;;16.33;99.11
62420;BME280;48460;51.616;5.426;2022-09-09T10:07:22;100677.16;;;16.32;99.68
62420;BME280;48460;51.616;5.426;2022-09-09T10:09:52;100675.56;;;16.18;100.00
62420;BME280;48460;51.616;5.426;2022-09-09T10:18:16;100679.19;;;15.59;100.00
62420;BME280;48460;51.616;5.426;2022-09-09T10:57:57;100686.91;;;15.62;100.00
62420;BME280;48460;51.616;5.426;2022-09-09T11:00:46;100689.03;;;15.81;100.00
62420;BME280;48460;51.616;5.426;2022-09-09T11:14:26;100692.94;;;15.88;100.00
62420;BME280;48460;51.616;5.426;2022-09-09T11:19:44;100683.75;;;15.92;100.00
62420;BME280;48460;51.616;5.426;2022-09-09T11:24:52;100705.16;;;16.25;100.00
62420;BME280;48460;51.616;5.426;2022-09-09T11:27:30;100684.63;;;16.04;100.00
62420;BME280;48460;51.616;5.426;2022-09-09T11:33:23;100695.00;;;16.18;100.00
62420;BME280;48460;51.616;5.426;2022-09-09T11:38:56;100680.38;;;15.90;100.00
62420;BME280;48460;51.616;5.426;2022-09-09T11:48:02;100685.56;;;15.92;100.00
62420;BME280;48460;51.616;5.426;2022-09-09T11:50:34;100684.38;;;15.96;100.00
62420;BME280;48460;51.616;5.426;2022-09-09T11:53:20;100679.19;;;15.94;100.00
62420;BME280;48460;51.616;5.426;2022-09-09T11:56:00;100681.44;;;15.77;100.00
62420;BME280;48460;51.616;5.426;2022-09-09T11:58:37;100681.09;;;15.81;100.00
62420;BME280;48460;51.616;5.426;2022-09-09T12:01:34;100677.00;;;15.88;100.00
62420;BME280;48460;51.616;5.426;2022-09-09T12:06:48;100678.22;;;15.95;100.00
62420;BME280;48460;51.616;5.426;2022-09-09T12:11:50;100667.88;;;16.04;100.00
62420;BME280;48460;51.616;5.426;2022-09-09T12:17:59;100672.94;;;16.29;100.00
62420;BME280;48460;51.616;5.426;2022-09-09T12:20:36;100669.78;;;16.47;100.00
62420;BME280;48460;51.616;5.426;2022-09-09T12:23:25;100666.97;;;16.71;100.00
62420;BME280;48460;51.616;5.426;2022-09-09T12:34:47;100659.84;;;17.26;100.00
62420;BME280;48460;51.616;5.426;2022-09-09T12:40:02;100660.97;;;17.65;100.00
62420;BME280;48460;51.616;5.426;2022-09-09T12:42:30;100659.75;;;17.90;98.16
62420;BME280;48460;51.616;5.426;2022-09-09T12:45:15;100654.66;;;18.08;98.11
62420;BME280;48460;51.616;5.426;2022-09-09T12:48:02;100652.72;;;18.10;97.01
62420;BME280;48460;51.616;5.426;2022-09-09T12:50:37;100664.22;;;17.69;95.22
62420;BME280;48460;51.616;5.426;2022-09-09T12:53:15;100659.19;;;17.34;97.88
62420;BME280;48460;51.616;5.426;2022-09-09T12:55:59;100672.75;;;17.30;99.01
62420;BME280;48460;51.616;5.426;2022-09-09T12:58:44;100663.59;;;16.80;100.00
62420;BME280;48460;51.616;5.426;2022-09-09T13:01:37;100679.19;;;16.51;100.00
62420;BME280;48460;51.616;5.426;2022-09-09T13:04:29;100664.38;;;16.37;100.00
62420;BME280;48460;51.616;5.426;2022-09-09T13:12:36;100660.22;;;17.95;100.00
62420;BME280;48460;51.616;5.426;2022-09-09T13:18:02;100651.53;;;20.00;92.73
62420;BME280;48460;51.616;5.426;2022-09-09T13:23:04;100635.22;;;20.68;85.20
62420;BME280;48460;51.616;5.426;2022-09-09T13:25:30;100639.66;;;21.49;82.99
62420;BME280;48460;51.616;5.426;2022-09-09T13:33:39;100635.94;;;21.24;77.12
62420;BME280;48460;51.616;5.426;2022-09-09T13:36:28;100643.25;;;20.86;81.06
62420;BME280;48460;51.616;5.426;2022-09-09T13:39:03;100631.22;;;20.55;80.09
62420;BME280;48460;51.616;5.426;2022-09-09T13:41:41;100632.84;;;20.28;79.92
62420;BME280;48460;51.616;5.426;2022-09-09T13:44:26;100637.25;;;19.82;83.71
62420;BME280;48460;51.616;5.426;2022-09-09T13:47:17;100638.00;;;19.55;85.49
62420;BME280;48460;51.616;5.426;2022-09-09T13:49:44;100634.50;;;19.16;86.81
62420;BME280;48460;51.616;5.426;2022-09-09T13:54:51;100635.31;;;18.87;90.45
62420;BME280;48460;51.616;5.426;2022-09-09T13:57:23;100639.78;;;18.77;89.43
62420;BME280;48460;51.616;5.426;2022-09-09T13:59:51;100637.91;;;18.67;89.06
62420;BME280;48460;51.616;5.426;2022-09-09T14:05:17;100650.66;;;18.54;91.55
62420;BME280;48460;51.616;5.426;2022-09-09T14:07:47;100640.78;;;18.35;94.51
62420;BME280;48460;51.616;5.426;2022-09-09T14:10:16;100639.44;;;18.20;98.51
62420;BME280;48460;51.616;5.426;2022-09-09T14:12:43;100627.94;;;18.10;99.58
62420;BME280;48460;51.616;5.426;2022-09-09T14:15:12;100632.34;;;18.30;100.00
62420;BME280;48460;51.616;5.426;2022-09-09T14:17:41;100622.84;;;18.97;95.86
62420;BME280;48460;51.616;5.426;2022-09-09T14:20:17;100620.88;;;19.09;91.56
62420;BME280;48460;51.616;5.426;2022-09-09T14:25:26;100613.28;;;18.75;89.55
62420;BME280;48460;51.616;5.426;2022-09-09T14:30:38;100622.38;;;18.73;88.86
62420;BME280;48460;51.616;5.426;2022-09-09T14:33:14;100619.22;;;18.98;88.90
62420;BME280;48460;51.616;5.426;2022-09-09T14:38:17;100620.19;;;19.46;86.84
62420;BME280;48460;51.616;5.426;2022-09-09T14:40:48;100625.34;;;19.67;84.24
62420;BME280;48460;51.616;5.426;2022-09-09T14:43:15;100620.47;;;19.23;83.00
62420;BME280;48460;51.616;5.426;2022-09-09T14:45:46;100628.00;;;18.79;86.67
62420;BME280;48460;51.616;5.426;2022-09-09T14:48:21;100614.53;;;18.71;86.73
62420;BME280;48460;51.616;5.426;2022-09-09T14:50:50;100622.34;;;18.63;87.82
62420;BME280;48460;51.616;5.426;2022-09-09T14:53:16;100628.78;;;18.51;86.96
62420;BME280;48460;51.616;5.426;2022-09-09T14:55:47;100623.00;;;18.36;88.75
62420;BME280;48460;51.616;5.426;2022-09-09T14:58:13;100623.66;;;18.28;88.04
62420;BME280;48460;51.616;5.426;2022-09-09T15:00:42;100615.75;;;18.17;89.88
62420;BME280;48460;51.616;5.426;2022-09-09T15:03:12;100620.06;;;18.08;90.11
62420;BME280;48460;51.616;5.426;2022-09-09T15:05:41;100634.91;;;18.01;91.53
62420;BME280;48460;51.616;5.426;2022-09-09T15:08:11;100641.22;;;17.79;96.09
62420;BME280;48460;51.616;5.426;2022-09-09T15:10:49;100647.16;;;17.50;100.00
62420;BME280;48460;51.616;5.426;2022-09-09T15:15:52;100657.22;;;16.82;100.00
62420;BME280;48460;51.616;5.426;2022-09-09T15:18:28;100675.94;;;16.47;100.00
62420;BME280;48460;51.616;5.426;2022-09-09T15:20:56;100685.47;;;16.05;100.00
62420;BME280;48460;51.616;5.426;2022-09-09T15:23:23;100690.00;;;15.80;100.00
62420;BME280;48460;51.616;5.426;2022-09-09T15:25:53;100692.53;;;15.70;100.00
62420;BME280;48460;51.616;5.426;2022-09-09T15:28:19;100690.63;;;15.60;100.00
62420;BME280;48460;51.616;5.426;2022-09-09T15:30:47;100693.84;;;15.52;100.00
62420;BME280;48460;51.616;5.426;2022-09-09T15:33:13;100696.72;;;15.49;100.00
62420;BME280;48460;51.616;5.426;2022-09-09T15:35:38;100686.59;;;15.43;100.00
62420;BME280;48460;51.616;5.426;2022-09-09T15:38:04;100681.59;;;15.27;100.00
62420;BME280;48460;51.616;5.426;2022-09-09T15:40:32;100681.81;;;15.24;100.00
62420;BME280;48460;51.616;5.426;2022-09-09T15:42:58;100674.13;;;15.21;100.00
62420;BME280;48460;51.616;5.426;2022-09-09T15:45:24;100668.19;;;15.17;100.00
62420;BME280;48460;51.616;5.426;2022-09-09T15:47:49;100673.81;;;15.13;100.00
62420;BME280;48460;51.616;5.426;2022-09-09T15:50:15;100669.50;;;15.12;100.00
62420;BME280;48460;51.616;5.426;2022-09-09T15:52:40;100664.19;;;15.12;100.00
62420;BME280;48460;51.616;5.426;2022-09-09T15:55:07;100674.06;;;15.10;100.00
62420;BME280;48460;51.616;5.426;2022-09-09T15:57:33;100668.97;;;15.07;100.00
62420;BME280;48460;51.616;5.426;2022-09-09T16:00:00;100667.78;;;15.11;100.00
62420;BME280;48460;51.616;5.426;2022-09-09T16:02:25;100677.50;;;15.23;100.00
62420;BME280;48460;51.616;5.426;2022-09-09T16:04:51;100676.06;;;15.30;100.00
62420;BME280;48460;51.616;5.426;2022-09-09T16:07:16;100667.91;;;15.33;100.00
62420;BME280;48460;51.616;5.426;2022-09-09T16:09:42;100681.38;;;15.30;100.00
62420;BME280;48460;51.616;5.426;2022-09-09T16:12:09;100686.31;;;15.35;100.00
62420;BME280;48460;51.616;5.426;2022-09-09T16:14:38;100679.47;;;15.43;100.00
62420;BME280;48460;51.616;5.426;2022-09-09T16:17:05;100680.00;;;15.48;100.00
62420;BME280;48460;51.616;5.426;2022-09-09T16:19:31;100683.47;;;15.49;100.00
62420;BME280;48460;51.616;5.426;2022-09-09T16:21:57;100680.59;;;15.41;100.00
62420;BME280;48460;51.616;5.426;2022-09-09T16:24:26;100685.88;;;15.41;100.00
62420;BME280;48460;51.616;5.426;2022-09-09T16:26:53;100683.78;;;15.33;100.00
62420;BME280;48460;51.616;5.426;2022-09-09T16:29:20;100691.75;;;15.33;100.00
62420;BME280;48460;51.616;5.426;2022-09-09T16:31:47;100691.84;;;15.32;100.00
62420;BME280;48460;51.616;5.426;2022-09-09T16:34:16;100709.22;;;15.36;100.00
62420;BME280;48460;51.616;5.426;2022-09-09T16:36:43;100702.56;;;15.30;100.00
62420;BME280;48460;51.616;5.426;2022-09-09T16:39:17;100698.13;;;15.31;100.00
62420;BME280;48460;51.616;5.426;2022-09-09T16:41:44;100695.22;;;15.34;100.00
62420;BME280;48460;51.616;5.426;2022-09-09T16:44:11;100707.25;;;15.26;100.00
62420;BME280;48460;51.616;5.426;2022-09-09T16:46:40;100707.72;;;15.20;100.00
62420;BME280;48460;51.616;5.426;2022-09-09T16:49:12;100714.16;;;15.16;100.00